Bernice Lind — WDC8364 — position and weather

sailwx.info

Track history (hours):
 
Tides and Currents Weather Stations Pressure Air Temp Water Temp Dewpoint Dewpoint Depression Visibility Wind Speed Wind Dir Waves Ship Positions

Bernice Lind

Owner: Riverview Equipment Company, LLC, Petaluma, CA. More information available from US FCC via Universal Licensing System and Coast Guard Vessel Documentation Center.

Last reported at 2016-Jun-24 18:17 UTC. Time now 2016-Jun-26 12:04 UTC.
Position N 38°04' W 122°15'.

Length 20 m; draft 2.4 m.

Type: Towing. MMSI: 367085890.

Date/timePositionNaut miles runAvg speedWind from/ knotsBaromVisibWave heightAir tempDewpointWater temp
2016-Jun-24 18:17N 38°04' W 122°15'6 5.6
2016-Jun-24 17:11N 38°02' W 122°22'4 6.1
2016-Jun-24 16:32N 37°59' W 122°25'5 4.0
2016-Jun-24 15:19N 37°54' W 122°23'6 7.8
2016-Jun-24 14:33N 38°00' W 122°24'9 0.4
2016-Jun-23 14:30N 38°06' W 122°16'  
2016-Jun-15 22:33N 38°04' W 122°16'6 4.9
2016-Jun-15 21:18N 38°02' W 122°23'4 5.0
2016-Jun-15 20:28N 38°05' W 122°27'7 4.6
2016-Jun-15 19:03N 38°10' W 122°32'2 4.1
2016-Jun-15 18:33N 38°12' W 122°33'5 0.2
2016-Jun-14 19:10N 38°14' W 122°38'0 0.7
2016-Jun-14 18:33N 38°14' W 122°38'  
Track history (hours):
 
Tides and Currents Weather Stations Pressure Air Temp Water Temp Dewpoint Dewpoint Depression Visibility Wind Speed Wind Dir Waves Ship Positions

Bernice Lind

Owner: Riverview Equipment Company, LLC, Petaluma, CA. More information available from US FCC via Universal Licensing System and Coast Guard Vessel Documentation Center.

Last reported at 2016-Jun-24 18:17 UTC. Time now 2016-Jun-26 12:04 UTC.
Position N 38°04' W 122°15'.

Length 20 m; draft 2.4 m.

Type: Towing. MMSI: 367085890.

Date/timePositionNaut miles runAvg speedWind from/ knotsBaromVisibWave heightAir tempDewpointWater temp
2016-Jun-24 18:17N 38°04' W 122°15'6 5.6
2016-Jun-24 17:11N 38°02' W 122°22'4 6.1
2016-Jun-24 16:32N 37°59' W 122°25'5 4.0
2016-Jun-24 15:19N 37°54' W 122°23'6 7.8
2016-Jun-24 14:33N 38°00' W 122°24'9 0.4
2016-Jun-23 14:30N 38°06' W 122°16'  
2016-Jun-15 22:33N 38°04' W 122°16'6 4.9
2016-Jun-15 21:18N 38°02' W 122°23'4 5.0
2016-Jun-15 20:28N 38°05' W 122°27'7 4.6
2016-Jun-15 19:03N 38°10' W 122°32'2 4.1
2016-Jun-15 18:33N 38°12' W 122°33'5 0.2
2016-Jun-14 19:10N 38°14' W 122°38'0 0.7
2016-Jun-14 18:33N 38°14' W 122°38'  

Dump ship's entire track history